Time;durP1;ratioP1;P1;durP2;ratioP2;P2;SDS_P1;SDS_P2;PMS_P1;PMS_P2;Temp;Humidity;BMP_temperature;BMP_pressure;BME280_temperature;BME280_humidity;BME280_pressure;Samples;Min_cycle;Max_cycle;Signal;HPM_P1;HPM_P2
2021/03/11 00:02:21;;;;;;;27.38;17.90;;;7.50;97.40;;;;;;5066281;28;20580;-39
2021/03/11 00:04:46;;;;;;;26.73;18.42;;;7.50;97.20;;;;;;5066965;28;20652;-36
2021/03/11 00:07:12;;;;;;;30.30;18.73;;;7.60;97.20;;;;;;5065918;28;20032;-40
2021/03/11 00:09:37;;;;;;;30.58;18.95;;;7.60;97.10;;;;;;5066172;28;20136;-40
2021/03/11 00:12:10;;;;;;;27.50;18.27;;;7.60;97.00;;;;;;5066628;28;20039;-39
2021/03/11 00:14:38;;;;;;;25.90;17.42;;;7.60;97.00;;;;;;5065874;28;20048;-40
2021/03/11 00:17:05;;;;;;;25.45;17.27;;;7.60;96.90;;;;;;5066662;28;20105;-39
2021/03/11 00:19:31;;;;;;;25.83;17.98;;;7.70;96.80;;;;;;5066044;28;20048;-38
2021/03/11 00:21:57;;;;;;;27.45;18.52;;;7.60;96.70;;;;;;5064015;28;20055;-40
2021/03/11 00:24:23;;;;;;;27.92;17.95;;;7.70;96.70;;;;;;5065683;28;20117;-39
2021/03/11 00:26:48;;;;;;;25.88;16.30;;;7.70;96.60;;;;;;5066173;28;20074;-39
2021/03/11 00:29:14;;;;;;;25.90;17.98;;;7.70;96.60;;;;;;5065445;28;20706;-38
2021/03/11 00:31:45;;;;;;;34.13;19.60;;;7.70;96.50;;;;;;5065590;28;20460;-40
2021/03/11 00:34:11;;;;;;;28.52;18.48;;;7.70;96.50;;;;;;5065501;28;20125;-39
2021/03/11 00:36:37;;;;;;;27.00;18.27;;;7.70;96.60;;;;;;5064974;28;20024;-40
2021/03/11 00:39:05;;;;;;;29.23;18.67;;;7.70;96.60;;;;;;5065044;28;20440;-39
2021/03/11 00:41:30;;;;;;;26.98;18.27;;;7.70;96.60;;;;;;5065040;28;20035;-38
2021/03/11 00:43:56;;;;;;;28.00;17.95;;;7.70;96.50;;;;;;5065036;28;20112;-39
2021/03/11 00:46:21;;;;;;;24.88;17.02;;;7.70;96.50;;;;;;5064786;28;20096;-39
2021/03/11 00:48:47;;;;;;;26.88;17.23;;;7.80;96.50;;;;;;5064835;28;20187;-40
2021/03/11 00:51:13;;;;;;;26.15;16.75;;;7.80;96.50;;;;;;5064124;28;20090;-39
2021/03/11 00:53:39;;;;;;;24.70;16.90;;;7.80;96.40;;;;;;5064891;28;20028;-39
2021/03/11 00:56:05;;;;;;;22.92;14.98;;;7.90;96.40;;;;;;5064782;28;20025;-40
2021/03/11 00:58:30;;;;;;;26.02;17.30;;;7.90;96.30;;;;;;5064043;28;20032;-38
2021/03/11 01:00:56;;;;;;;25.05;16.48;;;7.90;96.20;;;;;;5064275;28;20399;-39
2021/03/11 01:03:21;;;;;;;24.85;17.13;;;7.90;96.20;;;;;;5063389;28;20086;-39
2021/03/11 01:05:47;;;;;;;26.38;16.90;;;7.90;96.10;;;;;;5063913;28;20231;-40
2021/03/11 01:08:12;;;;;;;26.92;16.88;;;7.90;96.20;;;;;;5064859;28;20020;-39
2021/03/11 01:10:39;;;;;;;24.73;16.55;;;7.90;96.20;;;;;;5063901;28;20773;-40
2021/03/11 01:13:05;;;;;;;22.13;15.18;;;7.90;96.20;;;;;;5064317;28;20373;-40
2021/03/11 01:15:40;;;;;;;23.20;15.52;;;7.90;96.20;;;;;;5064469;28;20043;-42
2021/03/11 01:18:07;;;;;;;21.35;15.00;;;7.90;96.20;;;;;;5063383;28;20099;-39
2021/03/11 01:20:35;;;;;;;23.35;16.10;;;8.00;96.50;;;;;;5062067;28;20032;-40
2021/03/11 01:23:02;;;;;;;24.88;16.90;;;8.00;96.30;;;;;;5064647;28;20024;-43
2021/03/11 01:25:28;;;;;;;21.90;16.00;;;8.00;96.30;;;;;;5063465;28;20028;-39
2021/03/11 01:27:56;;;;;;;20.63;14.85;;;8.00;96.40;;;;;;5064383;28;20042;-39
2021/03/11 01:30:25;;;;;;;22.88;16.35;;;8.00;96.50;;;;;;5063681;28;20027;-37
2021/03/11 01:32:50;;;;;;;23.65;16.05;;;8.00;96.60;;;;;;5063168;28;20639;-39
2021/03/11 01:35:16;;;;;;;21.15;15.48;;;8.10;96.70;;;;;;5063983;28;20048;-38
2021/03/11 01:37:41;;;;;;;20.00;15.23;;;8.10;96.80;;;;;;5063989;28;20431;-40
2021/03/11 01:40:08;;;;;;;24.20;16.95;;;8.00;96.90;;;;;;5063635;28;20068;-38
2021/03/11 01:42:35;;;;;;;27.65;18.45;;;8.00;97.00;;;;;;5064058;28;20029;-39
2021/03/11 01:45:03;;;;;;;22.70;16.27;;;8.00;97.20;;;;;;5064572;28;20553;-40
2021/03/11 01:47:29;;;;;;;20.88;15.90;;;8.00;97.40;;;;;;5063151;28;20413;-39
2021/03/11 01:49:54;;;;;;;22.98;16.83;;;8.00;97.50;;;;;;5064795;28;20035;-39
2021/03/11 01:52:20;;;;;;;24.23;18.13;;;8.00;97.60;;;;;;5063884;28;20412;-40
2021/03/11 01:54:46;;;;;;;24.67;16.85;;;8.00;97.70;;;;;;5063337;28;20090;-39
2021/03/11 01:57:12;;;;;;;22.55;15.65;;;8.00;97.80;;;;;;5064050;28;20472;-40
2021/03/11 01:59:38;;;;;;;23.80;16.27;;;8.00;97.70;;;;;;5063163;28;20039;-39
2021/03/11 02:02:04;;;;;;;24.42;17.05;;;8.00;97.70;;;;;;5063039;28;20044;-38
2021/03/11 02:04:30;;;;;;;21.73;16.42;;;8.00;97.70;;;;;;5064059;28;20561;-38
2021/03/11 02:06:56;;;;;;;22.15;16.67;;;8.00;97.60;;;;;;5063474;28;20024;-40
2021/03/11 02:09:21;;;;;;;20.85;15.70;;;8.00;97.60;;;;;;5064045;28;20105;-39
2021/03/11 02:12:02;;;;;;;22.65;15.98;;;8.10;97.60;;;;;;5063444;28;20032;-38
2021/03/11 02:14:46;;;;;;;20.38;14.98;;;8.10;97.50;;;;;;5063297;28;20467;-39
2021/03/11 02:17:17;;;;;;;19.00;14.52;;;8.10;97.50;;;;;;5067346;28;20118;-40
2021/03/11 02:20:08;;;;;;;18.73;14.60;;;8.20;97.50;;;;;;5056275;28;20056;-38
2021/03/11 02:23:00;;;;;;;19.08;14.20;;;8.20;97.50;;;;;;5066755;28;20023;-39
2021/03/11 02:25:34;;;;;;;20.70;14.47;;;8.20;97.40;;;;;;5067215;28;20060;-40
2021/03/11 02:28:25;;;;;;;21.65;14.40;;;8.20;97.40;;;;;;5066860;28;20032;-39
2021/03/11 02:30:54;;;;;;;17.30;13.20;;;8.20;97.50;;;;;;5067209;28;20064;-39
2021/03/11 02:33:22;;;;;;;18.10;12.95;;;8.20;97.40;;;;;;5066581;28;20086;-39
2021/03/11 02:35:49;;;;;;;16.42;12.50;;;8.20;97.50;;;;;;5067005;28;20355;-39
2021/03/11 02:38:14;;;;;;;17.70;12.55;;;8.20;97.70;;;;;;5066766;28;20113;-39
2021/03/11 02:40:41;;;;;;;15.60;11.90;;;8.20;97.80;;;;;;5066946;28;20734;-39
2021/03/11 02:43:11;;;;;;;15.23;12.63;;;8.20;97.80;;;;;;5066658;28;20076;-39
2021/03/11 02:45:37;;;;;;;14.73;12.43;;;8.20;97.90;;;;;;5056209;28;20070;-39
2021/03/11 02:48:08;;;;;;;17.48;12.55;;;8.20;98.00;;;;;;5066542;28;20024;-41
2021/03/11 02:50:35;;;;;;;17.77;12.77;;;8.20;98.00;;;;;;5066464;28;20400;-40
2021/03/11 02:53:03;;;;;;;13.52;11.30;;;8.20;98.00;;;;;;5067082;28;20516;-39
2021/03/11 02:55:35;;;;;;;14.90;12.27;;;8.20;98.10;;;;;;5063267;28;20016;-37
2021/03/11 02:58:01;;;;;;;15.17;11.93;;;8.30;98.20;;;;;;5066586;28;20050;-39
2021/03/11 03:00:31;;;;;;;14.85;11.68;;;8.30;98.20;;;;;;5066312;28;20294;-37
2021/03/11 03:02:59;;;;;;;12.45;11.00;;;8.20;98.10;;;;;;5066958;28;20024;-39
2021/03/11 03:05:28;;;;;;;14.75;11.40;;;8.30;98.20;;;;;;5066381;28;20029;-39
2021/03/11 03:07:54;;;;;;;14.18;11.07;;;8.30;98.20;;;;;;5066925;28;20085;-37
2021/03/11 03:10:24;;;;;;;12.82;10.57;;;8.30;98.10;;;;;;5066119;28;20112;-40
2021/03/11 03:12:52;;;;;;;13.07;11.13;;;8.40;98.40;;;;;;5046389;28;20170;-39
2021/03/11 03:15:19;;;;;;;13.80;10.35;;;8.40;98.10;;;;;;5061290;28;20480;-36
2021/03/11 03:17:49;;;;;;;13.15;11.10;;;8.40;98.00;;;;;;5065812;28;20066;-38
2021/03/11 03:20:17;;;;;;;12.93;10.85;;;8.40;98.00;;;;;;5066111;28;20032;-38
2021/03/11 03:22:43;;;;;;;13.82;10.77;;;8.50;98.00;;;;;;5066349;28;20024;-41
2021/03/11 03:25:11;;;;;;;12.82;9.68;;;8.50;98.20;;;;;;5065988;28;20055;-39
2021/03/11 03:27:38;;;;;;;12.13;10.60;;;8.50;98.00;;;;;;5065140;28;20555;-38
2021/03/11 03:30:09;;;;;;;11.88;10.20;;;8.50;98.00;;;;;;5066382;28;20040;-39
2021/03/11 03:32:35;;;;;;;13.40;10.85;;;8.50;98.00;;;;;;5066135;28;20071;-38
2021/03/11 03:35:04;;;;;;;12.10;10.20;;;8.50;98.20;;;;;;5066365;28;20024;-39
2021/03/11 03:37:29;;;;;;;14.23;10.73;;;8.50;98.40;;;;;;5065780;28;20463;-38
2021/03/11 03:39:55;;;;;;;14.65;10.70;;;8.50;98.70;;;;;;5065965;28;20040;-39
2021/03/11 03:42:22;;;;;;;13.40;10.90;;;8.50;99.00;;;;;;5065862;28;20024;-39
2021/03/11 03:44:49;;;;;;;11.40;10.18;;;8.40;99.10;;;;;;5066050;28;20028;-39
2021/03/11 03:47:15;;;;;;;13.35;10.93;;;8.40;99.20;;;;;;5066340;28;20024;-39
2021/03/11 03:49:41;;;;;;;12.85;9.95;;;8.40;99.50;;;;;;5066057;28;20370;-39
2021/03/11 03:52:07;;;;;;;13.88;11.05;;;8.40;99.50;;;;;;5065712;28;20130;-39
2021/03/11 03:54:38;;;;;;;13.20;10.85;;;8.40;99.70;;;;;;5066011;28;20339;-39
2021/03/11 03:57:17;;;;;;;13.20;10.77;;;8.40;99.80;;;;;;5065932;28;20028;-39
2021/03/11 03:59:44;;;;;;;13.43;10.45;;;8.40;99.70;;;;;;5065349;28;20438;-39
2021/03/11 04:02:13;;;;;;;13.57;10.68;;;8.40;99.90;;;;;;5065390;28;20060;-39
2021/03/11 04:04:42;;;;;;;15.55;10.48;;;8.40;99.90;;;;;;5065764;28;20028;-41
2021/03/11 04:07:10;;;;;;;14.63;11.10;;;8.40;99.90;;;;;;5064827;28;20032;-39
2021/03/11 04:09:38;;;;;;;13.55;10.90;;;8.40;99.90;;;;;;5066181;28;20056;-39
2021/03/11 04:12:06;;;;;;;14.70;11.52;;;8.40;99.90;;;;;;5065238;28;20488;-39
2021/03/11 04:14:32;;;;;;;12.50;10.77;;;8.40;99.90;;;;;;5065368;28;20086;-38
2021/03/11 04:16:59;;;;;;;12.45;10.60;;;8.40;99.90;;;;;;5065465;28;20056;-39
2021/03/11 04:19:25;;;;;;;15.10;11.77;;;8.50;99.90;;;;;;5065779;28;20089;-39
2021/03/11 04:21:52;;;;;;;14.23;11.65;;;8.50;99.90;;;;;;5064640;28;20020;-39
2021/03/11 04:24:19;;;;;;;13.13;11.30;;;8.50;99.90;;;;;;5065456;28;20029;-40
2021/03/11 04:26:45;;;;;;;14.00;11.38;;;8.60;99.90;;;;;;5065689;28;20097;-38
2021/03/11 04:29:12;;;;;;;14.07;11.30;;;8.60;99.90;;;;;;5065030;28;20096;-40
2021/03/11 04:31:38;;;;;;;13.68;11.55;;;8.60;99.90;;;;;;5065237;28;20099;-39
2021/03/11 04:34:04;;;;;;;14.20;11.02;;;8.60;99.90;;;;;;5065003;28;20119;-39
2021/03/11 04:36:32;;;;;;;13.68;11.30;;;8.70;99.90;;;;;;5064796;28;20452;-38
2021/03/11 04:38:58;;;;;;;14.30;11.63;;;8.70;99.90;;;;;;5061783;28;20432;-39
2021/03/11 04:41:24;;;;;;;16.10;11.38;;;8.70;99.90;;;;;;5064820;28;20474;-40
2021/03/11 04:43:50;;;;;;;14.82;11.27;;;8.80;99.90;;;;;;5065034;28;20039;-40
2021/03/11 04:46:19;;;;;;;15.23;11.93;;;8.80;99.90;;;;;;5064962;28;20032;-39
2021/03/11 04:48:45;;;;;;;14.93;12.15;;;8.80;99.90;;;;;;5064327;28;20044;-40
2021/03/11 04:51:13;;;;;;;15.25;12.43;;;8.80;99.90;;;;;;5065084;28;20108;-39
2021/03/11 04:53:42;;;;;;;14.38;11.50;;;8.80;99.90;;;;;;5065428;28;20107;-40
2021/03/11 04:56:10;;;;;;;16.25;12.35;;;8.90;99.90;;;;;;5065261;28;20029;-37
2021/03/11 04:58:40;;;;;;;17.42;12.15;;;8.90;99.90;;;;;;5065038;28;20124;-40
2021/03/11 05:01:09;;;;;;;15.20;11.90;;;9.00;99.90;;;;;;5065616;28;20182;-39
2021/03/11 05:03:37;;;;;;;14.02;11.90;;;9.00;99.90;;;;;;5065027;28;20513;-41
2021/03/11 05:06:03;;;;;;;17.10;12.73;;;9.00;99.80;;;;;;5066440;28;20031;-39
2021/03/11 05:08:29;;;;;;;16.23;12.98;;;9.00;99.80;;;;;;5066292;28;20024;-40
2021/03/11 05:10:54;;;;;;;17.63;13.40;;;9.10;99.80;;;;;;5065928;28;20024;-38
2021/03/11 05:13:20;;;;;;;18.45;12.85;;;9.10;99.70;;;;;;5065579;28;20017;-40
2021/03/11 05:15:45;;;;;;;17.42;12.73;;;9.20;99.70;;;;;;5065905;28;20150;-39
2021/03/11 05:18:11;;;;;;;15.30;12.00;;;9.10;99.70;;;;;;5064963;28;20119;-39
2021/03/11 05:20:37;;;;;;;16.77;12.30;;;9.20;99.60;;;;;;5066236;28;20020;-39
2021/03/11 05:23:02;;;;;;;16.30;12.18;;;9.20;99.60;;;;;;5066220;28;20033;-39
2021/03/11 05:25:28;;;;;;;17.05;12.65;;;9.20;99.50;;;;;;5065959;28;20047;-38
2021/03/11 05:27:53;;;;;;;19.90;12.80;;;9.30;99.50;;;;;;5066198;28;20024;-39
2021/03/11 05:30:19;;;;;;;17.13;12.30;;;9.30;99.40;;;;;;5065881;28;20052;-38
2021/03/11 05:32:45;;;;;;;15.15;12.00;;;9.30;99.30;;;;;;5065929;28;20028;-40
2021/03/11 05:35:11;;;;;;;16.88;12.30;;;9.40;99.30;;;;;;5065702;28;20065;-40
2021/03/11 05:37:38;;;;;;;14.60;11.80;;;9.40;99.20;;;;;;5065905;28;20058;-40
2021/03/11 05:40:10;;;;;;;16.15;11.55;;;9.50;99.20;;;;;;5065362;28;20028;-42
2021/03/11 05:42:37;;;;;;;15.07;12.20;;;9.50;99.20;;;;;;5065710;28;20028;-41
2021/03/11 05:45:07;;;;;;;15.35;11.23;;;9.50;99.30;;;;;;5064642;28;20111;-41
2021/03/11 05:47:43;;;;;;;14.57;11.43;;;9.50;99.40;;;;;;5064874;28;20027;-40
2021/03/11 05:50:09;;;;;;;14.25;10.82;;;9.50;99.60;;;;;;5063563;28;20418;-39
2021/03/11 05:52:36;;;;;;;12.48;10.18;;;9.50;99.60;;;;;;5064018;28;20028;-38
2021/03/11 05:55:03;;;;;;;15.43;11.73;;;9.50;99.60;;;;;;5064329;28;20101;-39
2021/03/11 05:57:29;;;;;;;16.48;11.35;;;9.50;99.90;;;;;;5064408;28;20050;-39
2021/03/11 05:59:55;;;;;;;15.60;11.05;;;9.50;99.90;;;;;;5064344;28;20044;-39
2021/03/11 06:02:26;;;;;;;15.77;11.38;;;9.40;99.90;;;;;;5064089;28;20334;-40
2021/03/11 06:04:53;;;;;;;14.30;10.77;;;9.50;99.90;;;;;;5064330;28;20033;-40
2021/03/11 06:07:22;;;;;;;14.48;10.90;;;9.40;99.90;;;;;;5053408;28;20051;-39
2021/03/11 06:09:49;;;;;;;14.27;10.25;;;9.40;99.90;;;;;;5064184;28;20494;-39
2021/03/11 06:12:16;;;;;;;14.65;10.30;;;9.50;99.90;;;;;;5065144;28;20025;-40
2021/03/11 06:14:47;;;;;;;14.40;11.48;;;9.60;99.90;;;;;;5065438;28;20047;-40
2021/03/11 06:17:14;;;;;;;15.07;10.80;;;9.50;99.90;;;;;;5065327;28;20113;-39
2021/03/11 06:19:39;;;;;;;16.67;10.85;;;9.60;99.90;;;;;;5065483;28;20044;-43
2021/03/11 06:22:05;;;;;;;15.88;11.23;;;9.60;99.90;;;;;;5064622;28;20029;-36
2021/03/11 06:24:31;;;;;;;15.32;9.95;;;9.60;99.80;;;;;;5064524;28;20452;-41
2021/03/11 06:26:56;;;;;;;15.50;10.32;;;9.60;99.70;;;;;;5064530;28;20013;-40
2021/03/11 06:29:35;;;;;;;14.75;10.60;;;9.70;99.60;;;;;;5063745;28;20036;-39
2021/03/11 06:32:01;;;;;;;14.80;10.15;;;9.70;99.60;;;;;;5064841;28;20043;-40
2021/03/11 06:34:34;;;;;;;14.88;10.02;;;9.70;99.50;;;;;;5064050;28;20025;-38
2021/03/11 06:36:59;;;;;;;12.55;9.80;;;9.70;99.30;;;;;;5064790;28;20052;-39
2021/03/11 06:39:27;;;;;;;12.30;9.20;;;9.80;99.30;;;;;;5063648;28;20079;-39
2021/03/11 06:41:53;;;;;;;15.25;9.63;;;9.90;99.10;;;;;;5063396;28;20021;-38
2021/03/11 06:44:34;;;;;;;10.95;8.23;;;9.90;99.00;;;;;;5064024;28;20036;-38
2021/03/11 06:47:03;;;;;;;15.82;8.85;;;10.00;98.90;;;;;;5062931;28;20100;-40
2021/03/11 06:49:29;;;;;;;12.27;8.50;;;10.10;98.80;;;;;;5063507;28;20036;-39
2021/03/11 06:52:07;;;;;;;12.80;8.25;;;10.10;98.70;;;;;;5063947;28;20025;-40
2021/03/11 06:54:56;;;;;;;12.10;9.00;;;10.20;98.60;;;;;;5062911;28;20032;-39
2021/03/11 06:57:29;;;;;;;12.00;9.00;;;10.20;98.40;;;;;;5059193;28;20433;-40
2021/03/11 06:59:56;;;;;;;13.00;9.10;;;10.20;98.20;;;;;;5062764;28;20116;-39
2021/03/11 07:02:23;;;;;;;11.90;8.55;;;10.30;98.30;;;;;;5063424;28;20045;-39
2021/03/11 07:04:49;;;;;;;12.23;8.05;;;10.30;98.10;;;;;;5067686;28;20399;-39
2021/03/11 07:07:33;;;;;;;11.20;8.00;;;10.30;98.20;;;;;;5066676;28;20025;-39
2021/03/11 07:09:58;;;;;;;11.50;8.32;;;10.30;98.10;;;;;;5067080;28;20452;-40
2021/03/11 07:12:24;;;;;;;13.32;8.20;;;10.30;98.00;;;;;;5068244;28;20043;-41
2021/03/11 07:15:10;;;;;;;9.52;7.35;;;10.20;97.90;;;;;;5064671;28;20123;-41
2021/03/11 07:17:36;;;;;;;11.88;7.22;;;10.20;97.90;;;;;;5067260;28;20036;-36
2021/03/11 07:20:15;;;;;;;9.90;6.55;;;10.20;97.60;;;;;;5068169;28;20033;-40
2021/03/11 07:22:42;;;;;;;10.27;6.53;;;10.20;97.50;;;;;;5066848;28;20127;-43
2021/03/11 07:25:31;;;;;;;11.18;6.68;;;10.30;97.30;;;;;;5067471;28;20111;-41
2021/03/11 07:28:02;;;;;;;9.80;5.25;;;10.30;96.90;;;;;;5067899;28;20027;-40
2021/03/11 07:30:28;;;;;;;12.40;5.78;;;10.30;96.40;;;;;;5067647;28;20021;-41
2021/03/11 07:33:03;;;;;;;11.15;4.88;;;10.40;96.20;;;;;;5067801;28;20107;-40
2021/03/11 07:35:33;;;;;;;10.65;4.35;;;10.50;95.70;;;;;;5068019;28;20029;-40
2021/03/11 07:38:02;;;;;;;11.82;4.25;;;10.50;95.50;;;;;;5066951;28;20028;-39
2021/03/11 07:40:31;;;;;;;10.13;3.70;;;10.60;94.70;;;;;;5057625;28;20041;-42
2021/03/11 07:42:57;;;;;;;15.50;4.45;;;10.70;94.50;;;;;;5067917;28;20012;-40
2021/03/11 07:45:23;;;;;;;9.68;4.03;;;10.70;94.60;;;;;;5066838;28;20493;-39
2021/03/11 07:47:51;;;;;;;10.25;3.42;;;10.90;94.40;;;;;;5067415;28;20409;-38
2021/03/11 07:50:17;;;;;;;12.05;3.40;;;11.00;94.40;;;;;;5066473;28;20116;-45
2021/03/11 07:52:42;;;;;;;11.55;4.07;;;11.00;94.10;;;;;;5066924;28;20115;-39
2021/03/11 07:55:10;;;;;;;13.02;4.03;;;11.10;94.10;;;;;;5067348;28;20017;-40
2021/03/11 07:57:46;;;;;;;9.15;4.10;;;11.20;94.10;;;;;;5067657;28;20044;-39
2021/03/11 08:00:15;;;;;;;8.90;3.88;;;11.30;94.00;;;;;;5066358;28;20040;-40
2021/03/11 08:02:53;;;;;;;8.70;4.10;;;11.40;93.80;;;;;;5067023;28;20045;-40
2021/03/11 08:05:29;;;;;;;11.23;4.53;;;11.50;93.60;;;;;;5066621;28;20324;-41
2021/03/11 08:08:29;;;;;;;7.43;3.80;;;11.60;93.30;;;;;;5067604;28;20017;-39
2021/03/11 08:10:57;;;;;;;11.30;3.47;;;11.60;93.00;;;;;;5066097;28;20031;-40
2021/03/11 08:13:33;;;;;;;10.25;3.65;;;11.60;92.40;;;;;;5066213;28;20071;-39
2021/03/11 08:16:22;;;;;;;10.57;3.97;;;11.70;92.40;;;;;;5067269;28;20081;-40
2021/03/11 08:18:54;;;;;;;7.95;2.92;;;11.70;92.20;;;;;;5061101;28;20527;-40
2021/03/11 08:21:25;;;;;;;7.60;2.72;;;11.80;91.70;;;;;;5065981;28;20801;-39
2021/03/11 08:23:52;;;;;;;10.20;3.03;;;11.80;91.80;;;;;;5066745;28;20104;-40
2021/03/11 08:26:39;;;;;;;13.25;3.03;;;11.90;91.30;;;;;;5066559;28;20116;-40
2021/03/11 08:29:22;;;;;;;10.10;3.10;;;11.90;90.60;;;;;;5066637;28;20127;-38
2021/03/11 08:31:49;;;;;;;12.32;3.15;;;12.00;90.20;;;;;;5063249;28;20032;-40
2021/03/11 08:34:32;;;;;;;15.60;3.08;;;12.00;89.80;;;;;;5066271;28;20027;-39
2021/03/11 08:37:17;;;;;;;12.80;2.97;;;12.10;88.10;;;;;;5064594;28;20016;-42
2021/03/11 08:39:46;;;;;;;17.67;3.88;;;12.10;87.60;;;;;;5065568;28;20043;-40
2021/03/11 08:42:48;;;;;;;14.43;2.95;;;12.20;86.00;;;;;;5065406;28;20012;-39
2021/03/11 08:45:38;;;;;;;14.68;2.60;;;12.20;86.60;;;;;;5066055;28;20020;-39
2021/03/11 08:48:18;;;;;;;12.45;2.95;;;12.30;86.00;;;;;;5064829;28;20032;-39
2021/03/11 08:50:49;;;;;;;16.30;3.40;;;12.30;85.40;;;;;;5065859;28;20032;-40
2021/03/11 08:53:42;;;;;;;14.50;3.55;;;12.40;84.90;;;;;;5066221;28;20028;-39
2021/03/11 08:56:16;;;;;;;;;;;12.40;85.40;;;;;;5065853;28;20503;-40
2021/03/11 08:59:02;;;;;;;15.57;3.38;;;12.40;84.30;;;;;;5065517;28;19939;-39
2021/03/11 09:01:51;;;;;;;16.90;3.22;;;12.40;84.50;;;;;;5066117;28;20044;-39
2021/03/11 09:04:29;;;;;;;16.08;3.47;;;12.50;84.50;;;;;;5066098;28;20029;-40
2021/03/11 09:06:55;;;;;;;13.93;3.75;;;12.40;84.30;;;;;;5066027;28;20036;-41
2021/03/11 09:09:50;;;;;;;16.17;3.65;;;12.50;83.60;;;;;;5064087;28;20059;-42
2021/03/11 09:12:21;;;;;;;14.68;3.60;;;12.50;83.50;;;;;;5065398;28;20141;-39
2021/03/11 09:14:49;;;;;;;16.00;3.80;;;12.50;82.90;;;;;;5065564;28;20047;-41
2021/03/11 09:17:16;;;;;;;17.40;3.80;;;12.60;83.10;;;;;;5065341;28;20077;-40
2021/03/11 09:19:55;;;;;;;16.55;3.80;;;12.50;83.10;;;;;;5065651;28;20052;-39
2021/03/11 09:22:32;;;;;;;18.88;4.40;;;12.50;82.60;;;;;;5065407;28;20085;-40
2021/03/11 09:24:58;;;;;;;17.42;4.35;;;12.60;83.60;;;;;;5064866;28;20024;-38
2021/03/11 09:27:28;;;;;;;17.85;3.92;;;12.60;82.90;;;;;;5065728;28;20017;-36
2021/03/11 09:29:58;;;;;;;19.13;3.60;;;12.60;82.80;;;;;;5065141;28;20032;-39
2021/03/11 09:32:30;;;;;;;23.23;4.97;;;12.70;82.60;;;;;;5065749;28;20008;-39
2021/03/11 09:35:00;;;;;;;;;;;12.70;81.50;;;;;;5066456;28;20058;-40
2021/03/11 09:37:58;;;;;;;27.05;4.90;;;12.80;80.80;;;;;;5065070;28;19916;-39
2021/03/11 09:40:44;;;;;;;21.58;5.20;;;12.80;80.40;;;;;;5065461;28;20033;-40
2021/03/11 09:43:30;;;;;;;24.50;4.55;;;12.80;79.90;;;;;;5065580;28;20045;-41
2021/03/11 09:46:06;;;;;;;27.70;4.97;;;12.80;79.80;;;;;;5045295;28;20040;-41
2021/03/11 09:48:33;;;;;;;19.17;4.25;;;12.80;78.60;;;;;;5061132;28;20029;-39
2021/03/11 09:51:15;;;;;;;19.85;5.03;;;12.80;78.40;;;;;;5064764;28;20020;-41
2021/03/11 09:53:54;;;;;;;20.38;5.70;;;12.80;77.60;;;;;;5065157;28;20017;-39
2021/03/11 09:56:29;;;;;;;21.17;4.35;;;12.80;77.60;;;;;;5045556;28;20025;-39
2021/03/11 09:59:05;;;;;;;19.20;4.38;;;12.80;76.60;;;;;;5060675;28;20123;-40
2021/03/11 10:01:39;;;;;;;18.92;3.88;;;12.80;76.70;;;;;;5045056;28;20060;-39
2021/03/11 10:04:21;;;;;;;20.23;3.97;;;12.80;77.20;;;;;;5060830;28;20651;-40
2021/03/11 10:06:53;;;;;;;19.63;4.57;;;12.80;77.00;;;;;;5044768;28;20465;-41
2021/03/11 10:09:19;;;;;;;22.13;4.93;;;12.80;77.20;;;;;;5061419;28;20036;-39
2021/03/11 10:11:52;;;;;;;19.92;4.20;;;12.80;76.30;;;;;;5065104;28;20134;-39
2021/03/11 10:14:23;;;;;;;21.13;4.32;;;12.70;77.10;;;;;;5064694;28;20029;-40
2021/03/11 10:16:50;;;;;;;27.73;5.10;;;12.80;77.60;;;;;;5065316;28;20032;-41
2021/03/11 10:19:16;;;;;;;19.20;4.32;;;12.70;77.20;;;;;;5063715;28;20032;-41
2021/03/11 10:21:56;;;;;;;25.83;5.20;;;12.70;76.80;;;;;;5064517;28;20048;-39
2021/03/11 10:24:35;;;;;;;18.98;4.18;;;12.70;76.60;;;;;;5064496;28;20078;-41
2021/03/11 10:27:04;;;;;;;21.73;4.22;;;12.70;77.60;;;;;;5063924;28;20498;-38
2021/03/11 10:29:32;;;;;;;22.65;4.75;;;12.80;77.40;;;;;;5064410;28;20017;-41
2021/03/11 10:32:00;;;;;;;25.70;5.25;;;12.80;78.20;;;;;;5064600;28;20476;-36
2021/03/11 10:34:27;;;;;;;22.83;4.82;;;12.80;77.50;;;;;;5063388;28;20107;-38
2021/03/11 10:36:57;;;;;;;24.23;5.43;;;12.80;77.60;;;;;;5066482;28;20033;-39
2021/03/11 10:39:24;;;;;;;22.33;4.80;;;12.80;78.20;;;;;;5067685;28;20380;-38
2021/03/11 10:41:59;;;;;;;19.70;4.47;;;12.70;77.70;;;;;;5067571;28;20032;-38
2021/03/11 10:44:35;;;;;;;20.40;4.53;;;12.70;77.30;;;;;;5067459;28;20392;-41
2021/03/11 10:47:15;;;;;;;20.75;4.93;;;12.80;77.60;;;;;;5069410;28;20165;-38
2021/03/11 10:49:42;;;;;;;19.48;4.63;;;12.80;78.00;;;;;;5067865;28;20424;-38
2021/03/11 10:52:09;;;;;;;21.60;4.68;;;12.80;77.80;;;;;;5067356;28;20020;-40
2021/03/11 10:54:34;;;;;;;17.00;4.00;;;12.80;77.80;;;;;;5066948;28;20127;-44
2021/03/11 10:57:05;;;;;;;22.88;4.85;;;12.80;77.90;;;;;;5068030;28;20567;-40
2021/03/11 10:59:30;;;;;;;23.00;5.30;;;12.80;77.30;;;;;;5066696;28;20558;-40
2021/03/11 11:01:56;;;;;;;21.45;4.85;;;12.80;77.50;;;;;;5066852;28;20124;-40
2021/03/11 11:04:21;;;;;;;20.13;4.15;;;12.80;77.50;;;;;;5067417;28;20738;-40
2021/03/11 11:06:47;;;;;;;17.80;4.18;;;12.90;78.00;;;;;;5067063;28;20028;-40
2021/03/11 11:09:13;;;;;;;24.25;4.32;;;12.90;78.30;;;;;;5066719;28;20035;-36
2021/03/11 11:11:38;;;;;;;21.30;4.60;;;12.80;78.20;;;;;;5067228;28;20017;-38
2021/03/11 11:14:04;;;;;;;24.58;4.47;;;12.80;78.50;;;;;;5067157;28;20043;-38
2021/03/11 11:16:29;;;;;;;28.00;5.00;;;12.80;78.60;;;;;;5066352;28;20413;-38
2021/03/11 11:18:55;;;;;;;23.17;4.72;;;12.80;77.90;;;;;;5067565;28;20090;-37
2021/03/11 11:21:21;;;;;;;22.02;4.53;;;12.80;79.00;;;;;;5066548;28;20040;-38
2021/03/11 11:23:48;;;;;;;20.63;4.60;;;12.70;79.20;;;;;;5066352;28;20021;-38
2021/03/11 11:26:14;;;;;;;24.50;4.47;;;12.60;80.20;;;;;;5066335;28;20040;-39
2021/03/11 11:28:40;;;;;;;20.83;5.07;;;12.60;79.40;;;;;;5065804;28;20032;-39
2021/03/11 11:31:06;;;;;;;21.33;4.10;;;12.60;79.30;;;;;;5063064;28;20028;-39
2021/03/11 11:33:31;;;;;;;16.73;4.25;;;12.70;78.00;;;;;;5066423;28;20108;-39
2021/03/11 11:35:57;;;;;;;22.25;4.78;;;12.80;77.70;;;;;;5065949;28;20253;-40
2021/03/11 11:38:22;;;;;;;18.92;4.32;;;12.80;76.70;;;;;;5066298;28;20131;-40
2021/03/11 11:40:48;;;;;;;20.83;3.80;;;12.80;76.50;;;;;;5065595;28;20028;-38
2021/03/11 11:43:14;;;;;;;18.55;4.60;;;12.80;76.70;;;;;;5066055;28;20115;-38
2021/03/11 11:45:39;;;;;;;18.77;4.25;;;12.80;77.70;;;;;;5065756;28;20039;-40
2021/03/11 11:48:05;;;;;;;22.52;3.95;;;12.80;77.50;;;;;;5065164;28;20021;-37
2021/03/11 11:50:31;;;;;;;24.23;4.25;;;12.80;77.30;;;;;;5065600;28;20028;-40
2021/03/11 11:52:57;;;;;;;19.65;4.25;;;12.80;77.40;;;;;;5066038;28;20023;-39
2021/03/11 11:55:22;;;;;;;14.95;3.92;;;12.90;76.80;;;;;;5065988;28;20100;-43
2021/03/11 11:57:48;;;;;;;19.13;4.10;;;13.00;77.00;;;;;;5064952;28;20025;-39
2021/03/11 12:00:18;;;;;;;17.85;3.90;;;13.00;76.50;;;;;;5065900;28;20131;-39
2021/03/11 12:02:43;;;;;;;22.05;5.22;;;13.00;76.40;;;;;;5065981;28;20051;-39
2021/03/11 12:05:10;;;;;;;14.75;3.60;;;13.00;75.80;;;;;;5065467;28;20020;-38
2021/03/11 12:07:35;;;;;;;17.45;4.85;;;13.00;76.00;;;;;;5065499;28;20070;-41
2021/03/11 12:10:06;;;;;;;18.42;3.88;;;13.10;76.20;;;;;;5066188;28;20024;-38
2021/03/11 12:12:31;;;;;;;17.98;3.38;;;13.10;74.90;;;;;;5064957;28;20016;-43
2021/03/11 12:14:57;;;;;;;21.02;4.15;;;13.10;75.40;;;;;;5065915;28;20048;-40
2021/03/11 12:17:22;;;;;;;12.25;3.60;;;13.20;75.10;;;;;;5065959;28;20012;-37
2021/03/11 12:19:48;;;;;;;14.82;3.47;;;13.20;74.50;;;;;;5065196;28;20440;-38
2021/03/11 12:22:14;;;;;;;19.52;3.42;;;13.20;74.00;;;;;;5065459;28;20013;-38
2021/03/11 12:24:39;;;;;;;14.23;3.47;;;13.20;73.80;;;;;;5065456;28;20040;-38
2021/03/11 12:27:05;;;;;;;15.23;3.63;;;13.20;73.60;;;;;;5065195;28;20034;-38
2021/03/11 12:29:30;;;;;;;16.08;3.42;;;13.10;73.80;;;;;;5065349;28;20060;-39
2021/03/11 12:31:56;;;;;;;17.27;3.90;;;13.10;73.90;;;;;;5065722;28;20028;-38
2021/03/11 12:34:21;;;;;;;12.52;3.15;;;13.10;73.70;;;;;;5064583;28;20206;-37
2021/03/11 12:36:47;;;;;;;13.05;3.50;;;13.10;74.10;;;;;;5065335;28;20089;-39
2021/03/11 12:39:13;;;;;;;16.35;3.90;;;13.20;74.20;;;;;;5064875;28;20036;-39
2021/03/11 12:41:38;;;;;;;13.55;3.30;;;13.20;74.10;;;;;;5064889;28;20016;-38
2021/03/11 12:44:04;;;;;;;17.77;3.53;;;13.30;74.50;;;;;;5065264;28;20031;-40
2021/03/11 12:46:30;;;;;;;16.27;3.13;;;13.30;74.40;;;;;;5065252;28;20024;-40
2021/03/11 12:48:55;;;;;;;14.52;3.35;;;13.30;73.90;;;;;;5064461;28;20020;-39
2021/03/11 12:51:21;;;;;;;20.33;3.97;;;13.30;73.90;;;;;;5065041;28;20050;-40